createdAt,value
2024-01-01T00:22:26.453Z,8.5
2024-01-01T01:22:27.660Z,8.7
2024-01-01T01:42:28.068Z,8.6
2024-01-01T02:02:28.458Z,8.2
2024-01-01T02:22:28.868Z,7.1
2024-01-01T02:42:29.267Z,6.6
2024-01-01T03:02:29.681Z,6.6
2024-01-01T04:22:31.330Z,7.2
2024-01-01T04:42:31.714Z,7.5
2024-01-01T04:52:31.921Z,7.5
2024-01-01T05:02:32.125Z,7.5
2024-01-01T05:12:32.314Z,7.6
2024-01-01T05:22:32.530Z,7.5
2024-01-01T05:32:32.871Z,7.5
2024-01-01T05:42:33.048Z,7.6
2024-01-01T05:52:33.142Z,7.7
2024-01-01T06:02:35.037Z,7.7
2024-01-01T06:12:33.552Z,7.7
2024-01-01T06:22:33.740Z,7.7
2024-01-01T06:32:34.002Z,7.8
2024-01-01T06:42:34.129Z,7.8
2024-01-01T06:52:34.380Z,7.7
2024-01-01T07:02:34.535Z,7.8
2024-01-01T07:12:35.490Z,7.7
2024-01-01T07:22:34.946Z,7.6
2024-01-01T07:32:35.189Z,7.5
2024-01-01T07:42:35.352Z,7.4
2024-01-01T07:52:35.583Z,7.4
2024-01-01T08:12:35.983Z,7.1
2024-01-01T08:22:36.219Z,7.1
2024-01-01T08:32:36.410Z,7.2
2024-01-01T08:42:36.566Z,7.1
2024-01-01T08:52:36.789Z,7
2024-01-01T09:02:36.983Z,7
2024-01-01T09:22:37.434Z,7.3
2024-01-01T09:32:37.606Z,7.4
2024-01-01T09:42:37.792Z,7.4
2024-01-01T09:52:38.009Z,7.4
2024-01-01T10:02:38.229Z,7.4
2024-01-01T10:12:38.396Z,7.4
2024-01-01T10:22:38.621Z,7.3
2024-01-01T10:32:38.875Z,7.3
2024-01-01T10:42:39.020Z,7.3
2024-01-01T11:02:39.450Z,7.4
2024-01-01T11:12:39.610Z,7.7
2024-01-01T11:22:39.872Z,7.8
2024-01-01T11:42:40.213Z,7.6
2024-01-01T11:52:40.460Z,7.7
2024-01-01T12:12:40.866Z,7.4
2024-01-01T12:22:41.049Z,7.6
2024-01-01T12:32:41.307Z,7.8
2024-01-01T12:42:41.441Z,7.9
2024-01-01T13:02:41.856Z,8.2
2024-01-01T13:12:42.043Z,8.2
2024-01-01T13:22:42.274Z,8.3
2024-01-01T13:42:42.640Z,8.3
2024-01-01T13:52:42.857Z,8.4
2024-01-01T17:42:47.517Z,6.6
2024-01-01T18:02:47.950Z,6.3
2024-01-01T18:12:48.104Z,6.3
2024-01-01T18:22:48.329Z,6.4
2024-01-01T18:32:48.698Z,6.3
2024-01-01T18:42:48.730Z,6.4
2024-01-01T18:52:48.990Z,6.3
2024-01-01T19:02:49.136Z,6.4
2024-01-01T19:12:49.351Z,6.4
2024-01-01T19:22:49.581Z,6.5
2024-01-01T19:32:49.806Z,6.5
2024-01-01T19:42:49.958Z,6.2
2024-01-01T19:52:50.181Z,6.2
2024-01-01T20:02:50.354Z,6.1
2024-01-01T20:12:50.557Z,6
2024-01-01T20:22:50.812Z,6.1
2024-01-01T20:32:51.094Z,6.1
2024-01-01T20:42:51.169Z,6.3
2024-01-01T20:52:55.457Z,6.5
2024-01-01T21:02:51.613Z,6.8
2024-01-01T21:12:51.775Z,6.9
2024-01-01T21:22:52.013Z,7.1
2024-01-01T21:32:52.190Z,7
2024-01-01T21:42:52.412Z,7
2024-01-01T21:52:52.608Z,7.1
2024-01-01T22:02:52.803Z,7.1
2024-01-01T22:12:53.011Z,6.9
2024-01-01T22:22:53.199Z,6.7
2024-01-01T22:32:53.452Z,6.6
2024-01-01T22:42:53.619Z,6.5
2024-01-01T22:52:53.871Z,6.5
2024-01-01T23:02:54.081Z,6.5
2024-01-01T23:12:54.247Z,6.4
2024-01-01T23:22:54.435Z,6.4
2024-01-01T23:32:56.483Z,6.3
2024-01-01T23:42:54.906Z,6.3
2024-01-01T23:52:55.086Z,6.3
